Terminal Aerodrome Forecast
Issued by NWS

Home | Current Version | Previous Version | Text Only | Print | Product List | Glossary On
Versions: 1 2 3 4 5 6 7 8 9 10 11 12 13 14 15 16 17 18 19 20 21 22 23 24 25 26
000
FTUS43 KDLH 271100
TAFHYR
TAF
KHYR 271129Z 2712/2812 29002KT P6SM VCSH SCT030 OVC050
      TEMPO 2713/2716 4SM -RA OVC030
     FM271600 02010G18KT P6SM VCSH SCT030 BKN035
     FM280200 35009KT P6SM FEW035=

USA.gov is the U.S. government's official web portal to all federal, state and local government web resources and services.